createdAt,value
2023-11-01T00:00:43.613Z,4.20
2023-11-01T00:01:43.578Z,4.40
2023-11-01T00:02:43.581Z,4.40
2023-11-01T00:03:43.618Z,3.90
2023-11-01T00:04:43.466Z,4.50
2023-11-01T00:05:43.462Z,4.40
2023-11-01T00:06:43.409Z,4.60
2023-11-01T00:07:43.377Z,4.70
2023-11-01T00:08:43.399Z,4.60
2023-11-01T00:09:43.318Z,4.60
2023-11-01T00:10:43.290Z,4.80
2023-11-01T00:11:43.313Z,4.70
2023-11-01T00:12:43.235Z,4.90
2023-11-01T00:13:43.201Z,5.40
2023-11-01T00:14:43.227Z,5.50
2023-11-01T00:15:43.140Z,5.20
2023-11-01T00:16:43.215Z,5.70
2023-11-01T00:17:43.135Z,5.40
2023-11-01T00:18:43.066Z,5.90
2023-11-01T00:19:43.023Z,5.50
2023-11-01T00:20:43.066Z,5.80
2023-11-01T00:21:42.965Z,6.10
2023-11-01T00:22:42.940Z,5.90
2023-11-01T00:23:42.934Z,6.00
2023-11-01T00:24:44.586Z,6.90
2023-11-01T00:25:42.851Z,6.40
2023-11-01T00:26:42.838Z,6.20
2023-11-01T00:27:42.789Z,6.60
2023-11-01T00:28:42.762Z,6.70
2023-11-01T00:29:42.782Z,6.90
2023-11-01T00:30:42.702Z,7.00
2023-11-01T00:31:42.676Z,7.20
2023-11-01T00:32:42.710Z,7.00
2023-11-01T00:33:42.637Z,7.10
2023-11-01T00:34:42.583Z,6.90
2023-11-01T00:35:42.594Z,7.00
2023-11-01T00:36:42.532Z,7.00
2023-11-01T00:37:42.497Z,7.10
2023-11-01T00:38:42.479Z,7.30
2023-11-01T00:39:42.440Z,7.60
2023-11-01T00:40:42.413Z,7.50
2023-11-01T00:41:42.394Z,7.50
2023-11-01T00:42:42.347Z,7.90
2023-11-01T00:43:42.317Z,7.60
2023-11-01T00:44:42.326Z,7.80
2023-11-01T00:45:42.257Z,7.90
2023-11-01T00:46:42.312Z,7.80
2023-11-01T00:47:42.372Z,8.00
2023-11-01T00:48:42.195Z,8.00
2023-11-01T00:49:42.140Z,7.90
2023-11-01T00:50:42.166Z,8.20
2023-11-01T00:51:42.083Z,8.50
2023-11-01T00:52:42.055Z,8.20
2023-11-01T00:53:42.103Z,8.00
2023-11-01T00:54:41.994Z,8.20
2023-11-01T00:55:41.966Z,8.20
2023-11-01T00:56:42.009Z,8.30
2023-11-01T00:57:41.913Z,7.80
2023-11-01T00:58:41.879Z,8.20
2023-11-01T00:59:41.875Z,8.90
2023-11-01T01:00:41.818Z,8.60
2023-11-01T01:01:41.788Z,8.60
2023-11-01T01:02:41.823Z,8.20
2023-11-01T01:03:41.810Z,8.30
2023-11-01T01:04:41.719Z,8.40
2023-11-01T01:05:41.736Z,8.10
2023-11-01T01:06:41.645Z,7.90
2023-11-01T01:07:41.614Z,8.00
2023-11-01T01:08:41.620Z,8.40
2023-11-01T01:09:41.559Z,8.40
2023-11-01T01:10:41.522Z,7.70
2023-11-01T01:11:41.505Z,8.10
2023-11-01T01:12:41.464Z,8.50
2023-11-01T01:13:41.435Z,8.00
2023-11-01T01:14:41.471Z,7.70
2023-11-01T01:15:41.395Z,8.20
2023-11-01T01:16:41.354Z,7.60
2023-11-01T01:17:41.369Z,7.80
2023-11-01T01:18:41.286Z,7.60
2023-11-01T01:19:41.264Z,7.80
2023-11-01T01:20:41.305Z,7.90
2023-11-01T01:21:41.204Z,7.50
2023-11-01T01:22:41.179Z,7.00
2023-11-01T01:23:41.169Z,8.00
2023-11-01T01:24:41.118Z,7.70
2023-11-01T01:25:41.088Z,7.60
2023-11-01T01:26:41.077Z,7.70
2023-11-01T01:27:41.018Z,7.70
2023-11-01T01:28:40.992Z,7.30
2023-11-01T01:29:41.008Z,7.20
2023-11-01T01:30:40.936Z,7.40
2023-11-01T01:31:40.944Z,7.00
2023-11-01T01:32:40.940Z,7.20
2023-11-01T01:33:40.841Z,7.40
2023-11-01T01:34:40.824Z,7.10
2023-11-01T01:35:40.802Z,7.30
2023-11-01T01:36:40.772Z,7.30
2023-11-01T01:37:40.725Z,6.70
2023-11-01T01:38:40.756Z,6.90
2023-11-01T01:39:40.675Z,7.30
2023-11-01T01:40:40.637Z,7.20
2023-11-01T01:41:40.629Z,6.50
2023-11-01T01:42:40.598Z,7.10
2023-11-01T01:43:40.734Z,7.20
2023-11-01T01:44:40.579Z,7.10
2023-11-01T01:45:40.499Z,6.80
2023-11-01T01:46:40.460Z,6.70
2023-11-01T01:47:40.503Z,6.60
2023-11-01T01:48:40.406Z,6.20
2023-11-01T01:49:45.434Z,6.40
2023-11-01T01:50:40.374Z,6.40
2023-11-01T01:51:40.312Z,6.40
2023-11-01T01:52:40.302Z,6.30
2023-11-01T01:53:40.329Z,6.50
2023-11-01T01:54:40.226Z,6.40
2023-11-01T01:55:40.194Z,6.70
2023-11-01T01:56:40.179Z,6.60
2023-11-01T01:57:40.146Z,6.50
2023-11-01T01:58:40.104Z,6.50
2023-11-01T01:59:40.229Z,6.30
2023-11-01T02:00:40.047Z,6.50
2023-11-01T02:01:44.960Z,6.00
2023-11-01T02:02:40.165Z,6.40
2023-11-01T02:03:40.082Z,6.20
2023-11-01T02:04:39.928Z,6.20
2023-11-01T02:05:39.937Z,6.40
2023-11-01T02:06:39.875Z,6.20
2023-11-01T02:07:39.837Z,6.40
2023-11-01T02:08:39.901Z,6.00
2023-11-01T02:09:39.779Z,6.10
2023-11-01T02:10:39.759Z,6.10
2023-11-01T02:11:39.730Z,6.30
2023-11-01T02:12:39.703Z,6.20
2023-11-01T02:13:39.662Z,6.30
2023-11-01T02:14:39.646Z,6.30
2023-11-01T02:15:39.616Z,6.50
2023-11-01T02:16:39.575Z,6.50
2023-11-01T02:17:39.601Z,6.40
2023-11-01T02:18:39.520Z,6.70
2023-11-01T02:19:39.483Z,6.30
2023-11-01T02:20:39.517Z,6.60
2023-11-01T02:21:39.423Z,6.90
2023-11-01T02:22:39.394Z,6.20
2023-11-01T02:23:39.401Z,6.10
2023-11-01T02:24:39.364Z,6.40
2023-11-01T02:25:39.308Z,6.30
2023-11-01T02:26:39.315Z,6.30
2023-11-01T02:27:39.243Z,6.50
2023-11-01T02:28:39.214Z,6.40
2023-11-01T02:29:39.254Z,6.20
2023-11-01T02:30:39.157Z,6.60
2023-11-01T02:31:40.764Z,6.20
2023-11-01T02:32:39.173Z,6.70
2023-11-01T02:33:39.067Z,6.20
2023-11-01T02:34:39.036Z,6.00
2023-11-01T02:35:39.036Z,6.50
2023-11-01T02:36:38.989Z,6.50
2023-11-01T02:37:38.959Z,6.20
2023-11-01T02:38:38.969Z,6.60
2023-11-01T02:39:38.891Z,6.50
2023-11-01T02:40:38.884Z,6.10
2023-11-01T02:41:38.845Z,6.30
2023-11-01T02:42:38.801Z,6.40
2023-11-01T02:43:38.770Z,6.50
2023-11-01T02:44:38.769Z,6.60
2023-11-01T02:45:38.724Z,7.00
2023-11-01T02:46:38.683Z,6.60
2023-11-01T02:47:38.697Z,6.40
2023-11-01T02:48:38.620Z,6.40
2023-11-01T02:49:38.591Z,6.40
2023-11-01T02:50:38.642Z,6.20
2023-11-01T02:51:38.540Z,6.80
2023-11-01T02:52:38.503Z,6.80
2023-11-01T02:53:38.500Z,7.30
2023-11-01T02:54:38.453Z,6.60
2023-11-01T02:55:38.442Z,7.30
2023-11-01T02:56:38.460Z,7.00
2023-11-01T02:57:38.358Z,6.90
2023-11-01T02:58:38.323Z,6.90
2023-11-01T02:59:38.341Z,7.20
2023-11-01T03:00:38.279Z,7.40
2023-11-01T03:01:38.302Z,7.10
2023-11-01T03:02:38.260Z,7.30
2023-11-01T03:03:38.197Z,7.00
2023-11-01T03:04:38.143Z,7.20
2023-11-01T03:05:38.139Z,6.80
2023-11-01T03:06:38.087Z,6.60
2023-11-01T03:07:38.095Z,6.80
2023-11-01T03:08:38.045Z,6.90
2023-11-01T03:09:37.995Z,7.00
2023-11-01T03:10:37.980Z,7.00
2023-11-01T03:11:37.970Z,6.40
2023-11-01T03:12:37.926Z,6.50
2023-11-01T03:13:37.876Z,6.50
2023-11-01T03:14:37.858Z,6.30
2023-11-01T03:15:37.817Z,6.30
2023-11-01T03:16:37.788Z,6.10
2023-11-01T03:17:37.999Z,6.40
2023-11-01T03:18:37.743Z,6.50
2023-11-01T03:19:37.697Z,6.50
2023-11-01T03:20:37.697Z,6.70
2023-11-01T03:21:37.639Z,6.90
2023-11-01T03:22:37.609Z,6.30
2023-11-01T03:23:37.638Z,6.90
2023-11-01T03:24:37.548Z,6.00
2023-11-01T03:25:37.520Z,6.10
2023-11-01T03:26:37.521Z,6.60
2023-11-01T03:27:37.472Z,6.80
2023-11-01T03:28:37.448Z,6.30
2023-11-01T03:29:37.430Z,6.40
2023-11-01T03:30:37.374Z,6.50
2023-11-01T03:31:37.340Z,6.30
2023-11-01T03:32:37.377Z,6.10
2023-11-01T03:33:37.329Z,6.30
2023-11-01T03:34:37.311Z,6.40
2023-11-01T03:35:37.243Z,6.30
2023-11-01T03:36:37.189Z,6.40
2023-11-01T03:37:37.177Z,5.80
2023-11-01T03:38:37.175Z,5.60
2023-11-01T03:39:37.100Z,6.30
2023-11-01T03:40:37.073Z,6.40
2023-11-01T03:41:37.059Z,6.30
2023-11-01T03:42:37.019Z,6.10
2023-11-01T03:43:37.008Z,5.80
2023-11-01T03:44:37.004Z,6.20
2023-11-01T03:45:36.933Z,6.50
2023-11-01T03:46:36.937Z,6.10
2023-11-01T03:47:36.979Z,5.80
2023-11-01T03:48:36.832Z,6.10
2023-11-01T03:49:36.847Z,5.30
2023-11-01T03:50:36.822Z,6.00
2023-11-01T03:51:36.752Z,5.80
2023-11-01T03:52:36.719Z,6.20
2023-11-01T03:53:36.703Z,6.10
2023-11-01T03:54:36.654Z,5.70
2023-11-01T03:55:36.630Z,5.70
2023-11-01T03:56:36.637Z,5.90
2023-11-01T03:57:36.566Z,5.60
2023-11-01T03:58:36.533Z,5.60
2023-11-01T03:59:36.526Z,5.70
2023-11-01T04:00:36.496Z,5.40
2023-11-01T04:01:36.465Z,5.30
2023-11-01T04:02:36.533Z,5.70
2023-11-01T04:03:36.455Z,4.80
2023-11-01T04:04:36.354Z,5.40
2023-11-01T04:05:36.351Z,5.20
2023-11-01T04:06:36.299Z,5.10
2023-11-01T04:07:36.283Z,5.60
2023-11-01T04:08:36.285Z,5.50
2023-11-01T04:09:36.216Z,5.30
2023-11-01T04:10:36.186Z,5.40
2023-11-01T04:11:36.189Z,5.80
2023-11-01T04:12:36.121Z,5.40
2023-11-01T04:13:36.084Z,5.30
2023-11-01T04:14:36.092Z,5.60
2023-11-01T04:15:36.026Z,5.00
2023-11-01T04:16:36.170Z,5.10
2023-11-01T04:17:36.037Z,4.90
2023-11-01T04:18:36.076Z,5.10
2023-11-01T04:19:35.950Z,5.00
2023-11-01T04:20:35.883Z,5.40
2023-11-01T04:21:35.853Z,5.20
2023-11-01T04:22:35.817Z,5.30
2023-11-01T04:23:35.914Z,4.90
2023-11-01T04:24:35.761Z,5.10
2023-11-01T04:25:35.728Z,4.50
2023-11-01T04:26:35.709Z,5.00
2023-11-01T04:27:35.668Z,4.80
2023-11-01T04:28:35.639Z,4.40
2023-11-01T04:29:35.633Z,4.70
2023-11-01T04:30:35.578Z,4.90
2023-11-01T04:31:35.590Z,4.80
2023-11-01T04:32:35.602Z,4.80
2023-11-01T04:33:35.526Z,4.80
2023-11-01T04:34:35.522Z,4.60
2023-11-01T04:35:35.460Z,4.80
2023-11-01T04:36:35.396Z,4.60
2023-11-01T04:37:35.369Z,4.70
2023-11-01T04:38:35.408Z,4.50
2023-11-01T04:39:35.306Z,4.40
2023-11-01T04:40:35.280Z,4.40
2023-11-01T04:41:35.250Z,4.10
2023-11-01T04:42:35.218Z,4.30
2023-11-01T04:43:35.187Z,4.40
2023-11-01T04:44:35.299Z,4.20
2023-11-01T04:45:35.127Z,4.40
2023-11-01T04:46:35.101Z,4.30
2023-11-01T04:47:35.119Z,4.50
2023-11-01T04:48:35.096Z,4.60
2023-11-01T04:49:35.010Z,4.60
2023-11-01T04:50:35.016Z,4.70
2023-11-01T04:51:34.966Z,4.70
2023-11-01T04:52:34.916Z,4.60
2023-11-01T04:53:34.887Z,4.40
2023-11-01T04:54:34.865Z,4.10
2023-11-01T04:55:34.833Z,4.10
2023-11-01T04:56:34.878Z,4.40
2023-11-01T04:57:34.769Z,4.40
2023-11-01T04:58:34.738Z,4.50
2023-11-01T04:59:34.843Z,4.50
2023-11-01T05:00:34.676Z,3.90
2023-11-01T05:01:34.730Z,4.20
2023-11-01T05:02:34.708Z,4.30
2023-11-01T05:03:34.648Z,4.20
2023-11-01T05:04:34.576Z,4.10
2023-11-01T05:05:34.567Z,4.20
2023-11-01T05:06:34.504Z,4.50
2023-11-01T05:07:34.536Z,4.60
2023-11-01T05:08:34.517Z,4.70
2023-11-01T05:09:34.406Z,4.30
2023-11-01T05:10:34.383Z,4.30
2023-11-01T05:11:34.365Z,4.10
2023-11-01T05:12:34.315Z,4.40
2023-11-01T05:13:34.313Z,4.50
2023-11-01T05:14:34.281Z,4.30
2023-11-01T05:15:34.224Z,4.40
2023-11-01T05:16:34.207Z,4.60
2023-11-01T05:17:34.256Z,4.00
2023-11-01T05:18:34.213Z,4.30
2023-11-01T05:19:34.105Z,4.30
2023-11-01T05:20:34.134Z,4.40
2023-11-01T05:21:34.045Z,4.30
2023-11-01T05:22:34.016Z,4.20
2023-11-01T05:23:34.023Z,4.40
2023-11-01T05:24:33.954Z,4.40
2023-11-01T05:25:33.933Z,4.30
2023-11-01T05:26:33.936Z,3.80
2023-11-01T05:27:33.940Z,4.30
2023-11-01T05:28:33.841Z,4.30
2023-11-01T05:29:33.823Z,4.20
2023-11-01T05:30:33.818Z,4.00
2023-11-01T05:31:33.742Z,3.90
2023-11-01T05:32:33.780Z,4.50
2023-11-01T05:33:33.715Z,4.40
2023-11-01T05:34:33.653Z,4.70
2023-11-01T05:35:33.638Z,5.10
2023-11-01T05:36:33.614Z,4.30
2023-11-01T05:37:33.563Z,4.50
2023-11-01T05:38:33.536Z,4.70
2023-11-01T05:39:33.502Z,4.60
2023-11-01T05:40:33.469Z,4.50
2023-11-01T05:41:33.464Z,4.40
2023-11-01T05:42:33.415Z,4.40
2023-11-01T05:43:33.392Z,4.70
2023-11-01T05:44:33.394Z,4.20
2023-11-01T05:45:33.326Z,4.20
2023-11-01T05:46:33.355Z,4.50
2023-11-01T05:47:33.346Z,4.40
2023-11-01T05:48:33.289Z,4.10
2023-11-01T05:49:33.206Z,4.70
2023-11-01T05:50:33.202Z,4.80
2023-11-01T05:51:33.143Z,4.90
2023-11-01T05:52:33.132Z,4.80
2023-11-01T05:53:33.135Z,4.90
2023-11-01T05:54:33.058Z,5.00
2023-11-01T05:55:42.600Z,5.00
2023-11-01T05:56:33.036Z,5.20
2023-11-01T05:57:32.963Z,5.60
2023-11-01T05:58:32.933Z,5.00
2023-11-01T05:59:32.945Z,5.60
2023-11-01T06:00:32.889Z,5.60
2023-11-01T06:01:32.853Z,5.50
2023-11-01T06:02:32.924Z,4.90
2023-11-01T06:03:33.023Z,4.40
2023-11-01T06:04:32.779Z,4.40
2023-11-01T06:05:32.744Z,4.20
2023-11-01T06:06:32.688Z,4.30
2023-11-01T06:07:32.664Z,4.00
2023-11-01T06:08:32.708Z,3.70
2023-11-01T06:09:32.596Z,4.20
2023-11-01T06:10:32.576Z,4.00
2023-11-01T06:11:32.587Z,3.90
2023-11-01T06:12:32.512Z,4.00
2023-11-01T06:13:32.479Z,3.80
2023-11-01T06:14:32.519Z,3.80
2023-11-01T06:15:32.432Z,3.60
2023-11-01T06:16:32.396Z,3.40
2023-11-01T06:17:32.504Z,3.50
2023-11-01T06:18:32.331Z,3.60
2023-11-01T06:19:32.297Z,3.50
2023-11-01T06:20:32.308Z,3.50
2023-11-01T06:21:32.240Z,3.70
2023-11-01T06:22:32.204Z,3.50
2023-11-01T06:23:32.278Z,3.30
2023-11-01T06:25:32.297Z,3.40
2023-11-01T06:26:32.229Z,3.30
2023-11-01T06:27:32.051Z,3.90
2023-11-01T06:28:32.024Z,4.20
2023-11-01T06:29:32.009Z,4.30
2023-11-01T06:30:31.973Z,4.40
2023-11-01T06:31:31.934Z,4.10
2023-11-01T06:32:32.030Z,4.10
2023-11-01T06:33:31.974Z,4.40
2023-11-01T06:34:31.885Z,4.50
2023-11-01T06:35:31.824Z,4.90
2023-11-01T06:36:31.783Z,4.70
2023-11-01T06:37:31.756Z,4.30
2023-11-01T06:38:31.748Z,4.80
2023-11-01T06:39:31.710Z,4.90
2023-11-01T06:40:31.659Z,4.70
2023-11-01T06:41:31.682Z,4.90
2023-11-01T06:42:31.614Z,4.90
2023-11-01T06:43:31.572Z,5.20
2023-11-01T06:44:31.611Z,5.30
2023-11-01T06:45:31.511Z,5.10
2023-11-01T06:46:31.511Z,5.00
2023-11-01T06:47:31.510Z,5.60
2023-11-01T06:48:31.480Z,5.40
2023-11-01T06:49:32.478Z,5.30
2023-11-01T06:50:31.364Z,5.60
2023-11-01T06:51:31.329Z,5.20
2023-11-01T06:52:31.314Z,5.20
2023-11-01T06:53:31.298Z,5.10
2023-11-01T06:54:31.239Z,5.40
2023-11-01T06:55:31.229Z,5.50
2023-11-01T06:56:31.228Z,5.00
2023-11-01T06:57:31.177Z,4.90
2023-11-01T06:58:31.121Z,4.70
2023-11-01T06:59:31.100Z,4.70
2023-11-01T07:00:31.066Z,5.00
2023-11-01T07:01:31.033Z,4.40
2023-11-01T07:02:31.065Z,4.50
2023-11-01T07:03:31.052Z,5.10
2023-11-01T07:04:30.998Z,5.00
2023-11-01T07:05:30.922Z,4.70
2023-11-01T07:06:30.883Z,5.30
2023-11-01T07:07:30.848Z,5.30
2023-11-01T07:08:30.849Z,5.70
2023-11-01T07:09:30.797Z,5.10
2023-11-01T07:10:30.762Z,5.40
2023-11-01T07:11:30.727Z,5.00
2023-11-01T07:12:30.705Z,5.10
2023-11-01T07:13:30.691Z,4.90
2023-11-01T07:14:30.655Z,4.90
2023-11-01T07:15:30.624Z,5.00
2023-11-01T07:16:30.577Z,4.90
2023-11-01T07:17:30.645Z,4.80
2023-11-01T07:18:30.546Z,4.60
2023-11-01T07:19:30.493Z,4.20
2023-11-01T07:20:30.490Z,4.10
2023-11-01T07:21:30.435Z,3.70
2023-11-01T07:22:30.403Z,3.50
2023-11-01T07:23:30.457Z,3.20
2023-11-01T07:24:30.342Z,3.50
2023-11-01T07:25:30.308Z,3.10
2023-11-01T07:26:30.302Z,3.20
2023-11-01T07:27:30.252Z,3.70
2023-11-01T07:28:30.223Z,4.00
2023-11-01T07:29:30.229Z,3.50
2023-11-01T07:30:30.170Z,3.90
2023-11-01T07:31:30.156Z,3.60
2023-11-01T07:32:30.154Z,3.90
2023-11-01T07:33:30.142Z,3.60
2023-11-01T07:34:30.053Z,3.80
2023-11-01T07:35:30.078Z,3.60
2023-11-01T07:36:30.001Z,4.00
2023-11-01T07:37:29.962Z,3.70
2023-11-01T07:38:29.941Z,3.70
2023-11-01T07:39:29.904Z,3.90
2023-11-01T07:40:29.899Z,4.30
2023-11-01T07:41:29.867Z,3.90
2023-11-01T07:42:29.815Z,4.20
2023-11-01T07:43:29.786Z,4.10
2023-11-01T07:44:29.786Z,4.40
2023-11-01T07:45:29.766Z,4.40
2023-11-01T07:46:29.699Z,4.10
2023-11-01T07:47:29.729Z,4.30
2023-11-01T07:48:29.741Z,3.80
2023-11-01T07:49:29.613Z,4.10
2023-11-01T07:50:29.616Z,3.90
2023-11-01T07:51:29.553Z,4.10
2023-11-01T07:52:29.531Z,3.70
2023-11-01T07:53:29.521Z,3.70
2023-11-01T07:54:29.488Z,4.00
2023-11-01T07:55:29.438Z,3.80
2023-11-01T07:56:29.437Z,4.20
2023-11-01T07:57:29.380Z,3.90
2023-11-01T07:58:29.359Z,3.70
2023-11-01T07:59:29.422Z,3.90
2023-11-01T08:00:29.296Z,3.80
2023-11-01T08:01:29.327Z,3.70
2023-11-01T08:02:29.296Z,4.10
2023-11-01T08:03:29.308Z,4.10
2023-11-01T08:04:29.302Z,4.10
2023-11-01T08:05:29.232Z,4.00
2023-11-01T08:06:29.120Z,4.00
2023-11-01T08:07:29.088Z,4.00
2023-11-01T08:08:29.135Z,4.00
2023-11-01T08:09:29.031Z,3.60
2023-11-01T08:10:29.001Z,3.40
2023-11-01T08:11:28.992Z,3.40
2023-11-01T08:12:28.949Z,3.20
2023-11-01T08:13:28.913Z,3.20
2023-11-01T08:14:28.920Z,3.20
2023-11-01T08:15:28.857Z,3.10
2023-11-01T08:16:29.239Z,3.20
2023-11-01T08:17:28.921Z,3.40
2023-11-01T08:18:28.783Z,3.00
2023-11-01T08:19:28.737Z,3.00
2023-11-01T08:20:28.732Z,3.20
2023-11-01T08:21:28.682Z,3.40
2023-11-01T08:22:28.660Z,3.20
2023-11-01T08:23:28.638Z,3.10
2023-11-01T08:24:28.596Z,2.80
2023-11-01T08:25:28.567Z,2.40
2023-11-01T08:26:28.558Z,2.90
2023-11-01T08:27:28.512Z,2.80
2023-11-01T08:28:28.476Z,2.80
2023-11-01T08:29:28.466Z,2.90
2023-11-01T08:30:28.426Z,2.60
2023-11-01T08:31:28.423Z,2.70
2023-11-01T08:32:28.400Z,2.60
2023-11-01T08:33:28.430Z,2.60
2023-11-01T08:34:28.399Z,2.60
2023-11-01T08:35:28.329Z,2.90
2023-11-01T08:36:28.244Z,2.80
2023-11-01T08:37:28.220Z,2.70
2023-11-01T08:38:28.209Z,2.80
2023-11-01T08:39:28.166Z,3.00
2023-11-01T08:40:28.128Z,2.90
2023-11-01T08:41:28.107Z,2.90
2023-11-01T08:42:28.078Z,2.80
2023-11-01T08:43:28.042Z,3.00
2023-11-01T08:44:28.047Z,2.90
2023-11-01T08:45:27.993Z,2.80
2023-11-01T08:46:27.984Z,2.70
2023-11-01T08:47:28.005Z,2.90
2023-11-01T08:48:28.001Z,3.10
2023-11-01T08:49:27.892Z,3.40
2023-11-01T08:50:27.853Z,2.80
2023-11-01T08:51:27.814Z,3.30
2023-11-01T08:52:27.782Z,3.70
2023-11-01T08:53:29.438Z,3.30
2023-11-01T08:54:27.726Z,3.20
2023-11-01T08:55:27.698Z,4.10
2023-11-01T08:56:27.696Z,3.50
2023-11-01T08:57:27.646Z,2.60
2023-11-01T08:58:27.610Z,2.90
2023-11-01T08:59:27.594Z,2.90
2023-11-01T09:00:39.180Z,2.80
2023-11-01T09:01:27.600Z,2.60
2023-11-01T09:02:27.609Z,2.40
2023-11-01T09:03:27.556Z,2.30
2023-11-01T09:04:27.479Z,2.50
2023-11-01T09:05:27.487Z,2.40
2023-11-01T09:06:27.390Z,2.70
2023-11-01T09:07:27.362Z,2.80
2023-11-01T09:08:27.359Z,2.90
2023-11-01T09:09:27.300Z,2.50
2023-11-01T09:10:27.270Z,2.70
2023-11-01T09:11:27.250Z,2.40
2023-11-01T09:12:27.264Z,2.30
2023-11-01T09:13:27.190Z,2.00
2023-11-01T09:14:27.187Z,1.90
2023-11-01T09:15:27.128Z,2.60
2023-11-01T09:16:27.101Z,2.60
2023-11-01T09:17:27.174Z,2.40
2023-11-01T09:18:27.110Z,2.50
2023-11-01T09:19:27.017Z,2.50
2023-11-01T09:20:27.068Z,2.60
2023-11-01T09:21:26.977Z,2.30
2023-11-01T09:22:26.928Z,2.40
2023-11-01T09:23:26.925Z,2.10
2023-11-01T09:24:26.872Z,2.60
2023-11-01T09:25:26.907Z,2.10
2023-11-01T09:26:26.881Z,2.60
2023-11-01T09:27:26.790Z,2.40
2023-11-01T09:28:26.778Z,2.40
2023-11-01T09:29:26.742Z,2.60
2023-11-01T09:30:26.714Z,2.70
2023-11-01T09:31:26.675Z,2.40
2023-11-01T09:32:26.784Z,2.70
2023-11-01T09:33:26.725Z,2.60
2023-11-01T09:34:26.640Z,2.60
2023-11-01T09:35:26.698Z,2.70
2023-11-01T09:36:26.535Z,2.40
2023-11-01T09:37:26.526Z,2.20
2023-11-01T09:38:26.503Z,2.20
2023-11-01T09:39:26.473Z,2.30
2023-11-01T09:40:26.422Z,2.10
2023-11-01T09:41:26.415Z,2.30
2023-11-01T09:42:26.367Z,2.30
2023-11-01T09:43:26.338Z,2.20
2023-11-01T09:44:26.364Z,2.70
2023-11-01T09:45:26.324Z,2.60
2023-11-01T09:46:26.298Z,2.40
2023-11-01T09:47:26.325Z,2.40
2023-11-01T09:48:26.336Z,2.30
2023-11-01T09:49:26.185Z,2.30
2023-11-01T09:50:26.173Z,2.40
2023-11-01T09:51:26.138Z,2.10
2023-11-01T09:52:26.095Z,2.40
2023-11-01T09:53:26.159Z,2.00
2023-11-01T09:54:26.034Z,2.30
2023-11-01T09:55:26.015Z,2.30
2023-11-01T09:56:26.040Z,2.40
2023-11-01T09:57:25.960Z,2.60
2023-11-01T09:58:25.925Z,2.40
2023-11-01T09:59:25.961Z,3.00
2023-11-01T10:00:25.873Z,2.70
2023-11-01T10:01:25.864Z,2.60
2023-11-01T10:02:26.015Z,2.50
2023-11-01T10:03:25.860Z,2.50
2023-11-01T10:04:25.790Z,3.00
2023-11-01T10:05:25.845Z,3.10
2023-11-01T10:06:25.697Z,3.10
2023-11-01T10:07:25.679Z,2.70
2023-11-01T10:08:25.681Z,2.80
2023-11-01T10:09:25.644Z,2.80
2023-11-01T10:10:25.596Z,2.90
2023-11-01T10:11:25.890Z,3.00
2023-11-01T10:12:25.531Z,2.60
2023-11-01T10:13:25.509Z,2.60
2023-11-01T10:14:25.496Z,2.70
2023-11-01T10:15:25.489Z,2.40
2023-11-01T10:16:25.479Z,2.70
2023-11-01T10:17:25.418Z,2.80
2023-11-01T10:18:25.435Z,2.70
2023-11-01T10:19:25.342Z,2.80
2023-11-01T10:20:25.341Z,2.80
2023-11-01T10:21:25.288Z,2.80
2023-11-01T10:22:25.264Z,2.50
2023-11-01T10:23:25.249Z,2.40
2023-11-01T10:24:25.207Z,2.60
2023-11-01T10:25:26.751Z,2.50
2023-11-01T10:26:25.151Z,2.50
2023-11-01T10:27:25.124Z,2.30
2023-11-01T10:28:25.093Z,2.70
2023-11-01T10:29:25.083Z,2.80
2023-11-01T10:30:25.041Z,2.60
2023-11-01T10:31:25.774Z,2.20
2023-11-01T10:32:25.136Z,2.40
2023-11-01T10:33:25.261Z,2.40
2023-11-01T10:34:24.937Z,2.70
2023-11-01T10:35:25.086Z,2.70
2023-11-01T10:36:24.880Z,2.60
2023-11-01T10:37:26.943Z,2.80
2023-11-01T10:38:24.835Z,2.40
2023-11-01T10:39:24.801Z,2.90
2023-11-01T10:40:24.779Z,2.80
2023-11-01T10:41:24.850Z,3.30
2023-11-01T10:42:24.721Z,3.20
2023-11-01T10:43:24.699Z,2.90
2023-11-01T10:44:24.858Z,3.00
2023-11-01T10:45:24.636Z,2.70
2023-11-01T10:46:24.607Z,2.90
2023-11-01T10:47:24.594Z,3.00
2023-11-01T10:48:24.698Z,3.30
2023-11-01T10:49:24.528Z,3.40
2023-11-01T10:50:24.499Z,3.60
2023-11-01T10:51:24.474Z,3.40
2023-11-01T10:52:24.445Z,3.00
2023-11-01T10:53:24.428Z,3.50
2023-11-01T10:54:24.481Z,2.90
2023-11-01T10:55:24.367Z,3.00
2023-11-01T10:56:24.338Z,2.70
2023-11-01T10:57:24.336Z,2.80
2023-11-01T10:58:24.288Z,3.00
2023-11-01T10:59:24.258Z,2.60
2023-11-01T11:00:24.237Z,3.20
2023-11-01T11:01:24.205Z,3.00
2023-11-01T11:02:24.206Z,2.70
2023-11-01T11:03:24.303Z,2.90
2023-11-01T11:04:24.462Z,3.10
2023-11-01T11:05:24.097Z,3.50
2023-11-01T11:06:24.069Z,2.80
2023-11-01T11:07:24.955Z,2.40
2023-11-01T11:08:24.015Z,2.60
2023-11-01T11:09:24.558Z,2.70
2023-11-01T11:10:23.966Z,2.40
2023-11-01T11:11:23.937Z,2.60
2023-11-01T11:12:23.918Z,2.30
2023-11-01T11:13:23.906Z,2.60
2023-11-01T11:14:23.856Z,2.60
2023-11-01T11:15:23.829Z,2.80
2023-11-01T11:16:23.838Z,2.60
2023-11-01T11:17:23.775Z,2.70
2023-11-01T11:18:23.749Z,2.60
2023-11-01T11:19:23.721Z,2.70
2023-11-01T11:20:23.694Z,2.60
2023-11-01T11:21:23.669Z,2.30
2023-11-01T11:22:23.644Z,2.50
2023-11-01T11:23:23.621Z,3.00
2023-11-01T11:24:23.589Z,2.40
2023-11-01T11:25:23.566Z,2.60
2023-11-01T11:26:23.535Z,2.70
2023-11-01T11:27:23.509Z,2.50
2023-11-01T11:28:23.504Z,3.10
2023-11-01T11:29:23.478Z,2.60
2023-11-01T11:30:23.428Z,2.90
2023-11-01T11:31:23.412Z,2.70
2023-11-01T11:32:23.394Z,2.80
2023-11-01T11:33:23.452Z,2.60
2023-11-01T11:34:23.326Z,2.60
2023-11-01T11:35:23.293Z,2.70
2023-11-01T11:36:23.266Z,2.60
2023-11-01T11:37:23.241Z,2.90
2023-11-01T11:38:23.214Z,2.40
2023-11-01T11:39:23.190Z,2.60
2023-11-01T11:40:23.161Z,2.70
2023-11-01T11:41:23.153Z,2.60
2023-11-01T11:42:23.108Z,2.50
2023-11-01T11:43:23.086Z,2.80
2023-11-01T11:44:23.052Z,2.50
2023-11-01T11:45:23.048Z,2.30
2023-11-01T11:46:23.037Z,2.90
2023-11-01T11:47:22.974Z,2.50
2023-11-01T11:48:23.046Z,2.80
2023-11-01T11:49:22.919Z,2.90
2023-11-01T11:50:22.892Z,2.70
2023-11-01T11:51:22.866Z,2.60
2023-11-01T11:52:22.869Z,2.50
2023-11-01T11:53:24.441Z,2.70
2023-11-01T11:54:22.789Z,2.80
2023-11-01T11:55:22.762Z,2.60
2023-11-01T11:56:22.734Z,2.50
2023-11-01T11:57:22.706Z,2.50
2023-11-01T11:58:22.681Z,2.70
2023-11-01T11:59:22.667Z,2.70
2023-11-01T12:00:22.626Z,2.40
2023-11-01T12:01:22.654Z,2.70
2023-11-01T12:02:22.584Z,2.80
2023-11-01T12:03:22.625Z,2.60
2023-11-01T12:04:22.618Z,2.70
2023-11-01T12:05:22.493Z,3.10
2023-11-01T12:06:22.474Z,3.00
2023-11-01T12:07:22.609Z,3.20
2023-11-01T12:08:22.417Z,3.30
2023-11-01T12:09:22.395Z,3.50
2023-11-01T12:10:22.366Z,3.20
2023-11-01T12:11:22.335Z,2.90
2023-11-01T12:12:22.315Z,3.00
2023-11-01T12:13:22.286Z,2.90
2023-11-01T12:14:22.277Z,3.00
2023-11-01T12:15:22.234Z,3.20
2023-11-01T12:16:22.234Z,3.10
2023-11-01T12:17:22.196Z,3.20
2023-11-01T12:18:22.241Z,3.40
2023-11-01T12:19:22.123Z,3.20
2023-11-01T12:20:22.098Z,3.10
2023-11-01T12:21:22.071Z,3.10
2023-11-01T12:22:22.054Z,3.30
2023-11-01T12:23:22.020Z,3.30
2023-11-01T12:24:21.994Z,5.00
2023-11-01T12:25:21.970Z,4.70
2023-11-01T12:26:21.940Z,4.10
2023-11-01T12:27:21.912Z,3.30
2023-11-01T12:28:21.883Z,3.70
2023-11-01T12:29:21.859Z,3.70
2023-11-01T12:30:21.854Z,3.40
2023-11-01T12:31:21.840Z,4.00
2023-11-01T12:32:21.794Z,4.50
2023-11-01T12:33:21.931Z,4.70
2023-11-01T12:34:21.752Z,3.90
2023-11-01T12:35:21.705Z,3.90
2023-11-01T12:36:21.674Z,3.20
2023-11-01T12:37:21.654Z,3.20
2023-11-01T12:38:21.636Z,3.50
2023-11-01T12:39:21.595Z,3.80
2023-11-01T12:40:21.575Z,5.00
2023-11-01T12:41:21.544Z,4.60
2023-11-01T12:42:21.542Z,4.40
2023-11-01T12:43:21.493Z,3.80
2023-11-01T12:44:21.465Z,3.50
2023-11-01T12:45:21.583Z,3.30
2023-11-01T12:46:21.440Z,3.50
2023-11-01T12:47:21.384Z,3.30
2023-11-01T12:48:21.450Z,3.40
2023-11-01T12:49:21.351Z,3.50
2023-11-01T12:50:21.310Z,3.20
2023-11-01T12:51:21.283Z,3.70
2023-11-01T12:52:21.256Z,3.00
2023-11-01T12:53:21.226Z,2.90
2023-11-01T12:54:21.202Z,3.20
2023-11-01T12:55:21.222Z,3.20
2023-11-01T12:56:21.148Z,3.10
2023-11-01T12:57:21.122Z,2.70
2023-11-01T12:58:21.097Z,2.60
2023-11-01T12:59:21.075Z,2.90
2023-11-01T13:00:21.470Z,2.40
2023-11-01T13:01:21.061Z,2.70
2023-11-01T13:02:20.993Z,2.80
2023-11-01T13:03:21.122Z,3.20
2023-11-01T13:04:20.967Z,2.60
2023-11-01T13:05:20.971Z,3.10
2023-11-01T13:06:20.925Z,2.80
2023-11-01T13:07:20.854Z,3.00
2023-11-01T13:08:20.832Z,3.30
2023-11-01T13:09:20.808Z,2.90
2023-11-01T13:10:20.777Z,2.70
2023-11-01T13:11:20.750Z,2.70
2023-11-01T13:12:20.743Z,2.90
2023-11-01T13:13:20.703Z,3.30
2023-11-01T13:14:20.668Z,2.90
2023-11-01T13:15:20.914Z,3.10
2023-11-01T13:16:20.679Z,3.50
2023-11-01T13:17:20.587Z,2.70
2023-11-01T13:18:20.608Z,2.70
2023-11-01T13:19:20.550Z,3.00